createdAt,value
2022-11-24T00:01:27.478Z,0
2022-11-24T00:07:47.462Z,0
2022-11-24T00:14:10.438Z,0
2022-11-24T00:20:30.418Z,0
2022-11-24T00:26:53.393Z,0
2022-11-24T00:33:13.435Z,0
2022-11-24T00:39:36.431Z,0
2022-11-24T00:45:56.537Z,0
2022-11-24T00:52:19.409Z,0
2022-11-24T00:58:39.404Z,0
2022-11-24T01:05:02.345Z,0
2022-11-24T01:11:22.413Z,0
2022-11-24T01:17:45.418Z,0
2022-11-24T01:24:05.425Z,0
2022-11-24T01:30:28.386Z,0
2022-11-24T01:36:48.411Z,0
2022-11-24T01:43:11.385Z,0
2022-11-24T01:49:31.406Z,0
2022-11-24T01:55:54.472Z,0
2022-11-24T02:02:14.432Z,0
2022-11-24T02:08:37.305Z,0
2022-11-24T02:14:57.382Z,0
2022-11-24T02:21:20.341Z,0
2022-11-24T02:27:40.316Z,0
2022-11-24T02:34:03.420Z,0
2022-11-24T02:40:23.368Z,0
2022-11-24T02:46:46.422Z,0
2022-11-24T02:53:06.397Z,0
2022-11-24T02:59:29.419Z,0
2022-11-24T03:05:49.349Z,0
2022-11-24T03:12:12.465Z,0
2022-11-24T03:18:32.364Z,0
2022-11-24T03:24:55.423Z,0
2022-11-24T03:31:15.544Z,0
2022-11-24T03:37:38.352Z,0
2022-11-24T03:43:58.329Z,0
2022-11-24T03:50:21.383Z,0
2022-11-24T03:56:41.407Z,0
2022-11-24T04:03:04.426Z,0
2022-11-24T04:09:24.437Z,0
2022-11-24T04:15:47.417Z,0
2022-11-24T04:22:07.396Z,0
2022-11-24T04:39:20.537Z,0
2022-11-24T04:44:56.307Z,0
2022-11-24T04:51:19.368Z,0
2022-11-24T04:57:39.363Z,0
2022-11-24T05:04:02.420Z,0
2022-11-24T05:10:22.353Z,0
2022-11-24T05:16:45.358Z,0
2022-11-24T05:23:05.383Z,0
2022-11-24T05:29:28.358Z,0
2022-11-24T05:35:48.446Z,0
2022-11-24T05:42:11.373Z,0
2022-11-24T05:48:31.329Z,0
2022-11-24T05:54:54.400Z,0
2022-11-24T06:01:14.435Z,0
2022-11-24T06:07:37.446Z,0
2022-11-24T06:13:57.464Z,0
2022-11-24T06:20:20.338Z,0
2022-11-24T06:26:40.344Z,0
2022-11-24T06:33:03.356Z,1
2022-11-24T06:39:23.429Z,3
2022-11-24T06:45:46.392Z,6
2022-11-24T06:52:06.354Z,13
2022-11-24T06:58:29.450Z,27
2022-11-24T07:04:49.327Z,36
2022-11-24T07:11:12.425Z,45
2022-11-24T07:17:32.379Z,81
2022-11-24T07:23:55.351Z,109
2022-11-24T07:30:15.389Z,138
2022-11-24T07:36:38.338Z,194
2022-11-24T07:42:58.384Z,278
2022-11-24T07:49:21.553Z,283
2022-11-24T07:55:41.374Z,313
2022-11-24T08:02:04.530Z,399
2022-11-24T08:08:24.426Z,457
2022-11-24T08:14:47.374Z,612
2022-11-24T08:21:07.441Z,692
2022-11-24T08:27:30.362Z,769
2022-11-24T08:33:50.486Z,663
2022-11-24T08:40:13.345Z,897
2022-11-24T08:46:33.427Z,1042
2022-11-24T08:52:56.365Z,908
2022-11-24T08:59:16.406Z,952
2022-11-24T09:05:54.692Z,1127
2022-11-24T09:11:59.348Z,1037
2022-11-24T09:18:25.222Z,1221
2022-11-24T09:24:42.410Z,1230
2022-11-24T09:31:05.469Z,1249
2022-11-24T09:54:30.284Z,1062
2022-11-24T10:00:50.388Z,1491
2022-11-24T10:07:13.447Z,1437
2022-11-24T10:13:33.388Z,1650
2022-11-24T10:19:56.402Z,1440
2022-11-24T10:26:16.350Z,3019
2022-11-24T10:32:39.422Z,3399
2022-11-24T10:38:59.373Z,1865
2022-11-24T10:45:22.320Z,3277
2022-11-24T10:51:42.368Z,4230
2022-11-24T10:58:05.383Z,4340
2022-11-24T11:04:25.341Z,2160
2022-11-24T11:10:48.460Z,3744
2022-11-24T11:17:08.350Z,2372
2022-11-24T11:23:31.396Z,3887
2022-11-24T11:36:14.494Z,4214
2022-11-24T11:43:04.257Z,4424
2022-11-24T11:48:57.349Z,1456
2022-11-24T11:55:17.366Z,1723
2022-11-24T12:01:40.381Z,4597
2022-11-24T12:08:03.536Z,4883
2022-11-24T12:14:23.379Z,4567
2022-11-24T12:20:43.392Z,4536
2022-11-24T12:27:06.363Z,2995
2022-11-24T12:33:26.346Z,4797
2022-11-24T12:39:49.339Z,4409
2022-11-24T12:46:13.997Z,4032
2022-11-24T12:52:32.347Z,3927
2022-11-24T12:58:52.341Z,3590
2022-11-24T13:05:15.422Z,3586
2022-11-24T13:11:35.411Z,3357
2022-11-24T13:18:07.050Z,3165
2022-11-24T13:24:19.118Z,2377
2022-11-24T13:30:41.380Z,1676
2022-11-24T13:37:26.361Z,1898
2022-11-24T13:43:24.369Z,1802
2022-11-24T13:49:44.392Z,1714
2022-11-24T13:56:07.323Z,1733
2022-11-24T14:02:27.413Z,1640
2022-11-24T14:08:50.343Z,1465
2022-11-24T14:15:10.335Z,1359
2022-11-24T14:21:33.358Z,1123
2022-11-24T14:27:53.685Z,992
2022-11-24T14:34:16.411Z,853
2022-11-24T14:40:36.458Z,792
2022-11-24T14:46:59.332Z,694
2022-11-24T14:53:23.250Z,630
2022-11-24T15:16:25.446Z,241
2022-11-24T15:22:48.306Z,165
2022-11-24T15:29:08.355Z,115
2022-11-24T15:35:31.358Z,72
2022-11-24T15:41:51.324Z,42
2022-11-24T15:48:17.856Z,20
2022-11-24T15:54:34.443Z,9
2022-11-24T16:00:57.487Z,4
2022-11-24T16:07:17.348Z,2
2022-11-24T16:13:40.562Z,1
2022-11-24T16:20:00.901Z,0
2022-11-24T16:26:23.339Z,0
2022-11-24T16:32:43.402Z,0
2022-11-24T16:39:06.389Z,0
2022-11-24T16:45:26.473Z,0
2022-11-24T16:51:49.362Z,0
2022-11-24T16:58:09.400Z,0
2022-11-24T17:04:32.586Z,0
2022-11-24T17:10:52.382Z,0
2022-11-24T17:17:15.385Z,0
2022-11-24T17:23:35.345Z,0
2022-11-24T17:29:58.414Z,0
2022-11-24T17:36:18.391Z,0
2022-11-24T17:42:41.369Z,0
2022-11-24T17:49:01.407Z,0
2022-11-24T17:55:24.393Z,0
2022-11-24T18:01:44.456Z,0
2022-11-24T18:08:07.437Z,0
2022-11-24T18:14:27.309Z,0
2022-11-24T18:20:50.426Z,0
2022-11-24T18:27:10.399Z,0
2022-11-24T18:33:33.372Z,0
2022-11-24T18:39:53.481Z,0
2022-11-24T18:46:16.422Z,0
2022-11-24T18:52:36.418Z,0
2022-11-24T18:58:59.378Z,0
2022-11-24T19:05:19.401Z,0
2022-11-24T19:11:42.447Z,0
2022-11-24T19:18:02.385Z,0
2022-11-24T19:24:25.410Z,0
2022-11-24T19:30:45.415Z,0
2022-11-24T19:37:08.342Z,0
2022-11-24T19:43:28.481Z,0
2022-11-24T19:49:51.344Z,0
2022-11-24T19:56:11.365Z,0
2022-11-24T20:02:34.437Z,0
2022-11-24T20:08:54.382Z,0
2022-11-24T20:32:01.380Z,0
2022-11-24T20:38:24.330Z,0
2022-11-24T20:44:44.352Z,0
2022-11-24T20:51:07.353Z,0
2022-11-24T20:57:27.389Z,0
2022-11-24T21:03:50.331Z,0
2022-11-24T21:10:10.331Z,0
2022-11-24T21:16:33.437Z,0
2022-11-24T21:22:53.428Z,0
2022-11-24T21:29:16.385Z,0
2022-11-24T21:35:36.367Z,0
2022-11-24T21:41:59.425Z,0
2022-11-24T21:48:19.448Z,0
2022-11-24T21:54:42.391Z,0
2022-11-24T22:01:02.478Z,0
2022-11-24T22:07:25.539Z,0
2022-11-24T22:13:45.339Z,0
2022-11-24T22:20:08.362Z,0
2022-11-24T22:26:28.367Z,0
2022-11-24T22:32:51.338Z,0
2022-11-24T22:39:11.373Z,0
2022-11-24T22:45:34.471Z,0
2022-11-24T22:51:54.364Z,0
2022-11-24T22:58:17.401Z,0
2022-11-24T23:21:15.373Z,0
2022-11-24T23:27:35.301Z,0
2022-11-24T23:33:58.391Z,0
2022-11-24T23:40:18.392Z,0
2022-11-24T23:46:41.380Z,0
2022-11-24T23:53:01.383Z,0
2022-11-24T23:59:24.411Z,0
